Página principal
METAR-TAF:

METAR-TAF

Aeroportos :

Montserrat, Montserrat

latitude: 16-47-29N, longitude: 062-11-36W, altura: 168 m

Observação actual do tempo

O boletim foi feito há 3 horas e 27 minutos, às 22:00 UTC
Vento 12 kt de este
Temperatura 26°C
Humidade 94%
Pressão 1014 hPa
Visibilidade 10 km ou mais
Nuvens dispersasa uma altura de 1200 ft

METAR: TRPG 032200Z 10012KT 9999 SCT012 26/25 Q1014

Hora: 21:27 (01:27 UTC)

Previsão

O boletim foi feito há 8 horas e 27 minutos, às 17:00 UTC
Previsão válida de 03 às 18 UTC a 04 às 18 UTC
Vento 12 kt de este
Visibilidade 10 km ou mais
Nuvens dispersasa uma altura de 2000 ft
Probabilidade 40% :
Temporariamente
de 03 às 18 UTC a 04 às 09 UTC
Nuvens fragmentadasa uma altura de 1400 ft
aguaceiros de chuva

TAF: TRPG 031700Z 0318/0418 10012KT 9999 SCT020 PROB40 TEMPO 0318/0409 SHRA BKN014

Observações e previsões do tempo de mais de 4000 aeroportos (mensagens METAR e TAF).

As estações disponíveis são os pontos amarelos e vermelhos sobre o mapa.

Mova o rato sobre o mapa para ver o nome da estação.

Depois clique no ponto para visualizar as observações e previsões meteorológicas.

Para alterar o mapa : clique nos botões verdes com uma cruz preta para aumentar o zoom; no botão verde com uma pitada de zoom; ou nas setas verdes para mapas adjacentes.


METAR-TAF: